sensor_id;sensor_type;location;lat;lon;timestamp;temperature;humidity
21267;DHT22;10791;53.108;18.326;2022-11-15T00:04:36;6.40;99.90
21267;DHT22;10791;53.108;18.326;2022-11-15T00:09:40;6.40;99.90
21267;DHT22;10791;53.108;18.326;2022-11-15T00:14:47;6.40;99.90
21267;DHT22;10791;53.108;18.326;2022-11-15T00:19:51;6.30;99.90
21267;DHT22;10791;53.108;18.326;2022-11-15T00:24:54;6.20;99.90
21267;DHT22;10791;53.108;18.326;2022-11-15T00:29:57;6.20;99.90
21267;DHT22;10791;53.108;18.326;2022-11-15T00:35:02;6.20;99.90
21267;DHT22;10791;53.108;18.326;2022-11-15T00:40:06;6.20;99.90
21267;DHT22;10791;53.108;18.326;2022-11-15T00:45:10;6.10;99.90
21267;DHT22;10791;53.108;18.326;2022-11-15T00:50:14;6.10;99.90
21267;DHT22;10791;53.108;18.326;2022-11-15T00:55:18;6.10;99.90
21267;DHT22;10791;53.108;18.326;2022-11-15T01:00:22;6.10;99.90
21267;DHT22;10791;53.108;18.326;2022-11-15T01:05:25;6.00;99.90
21267;DHT22;10791;53.108;18.326;2022-11-15T01:10:29;6.00;99.90
21267;DHT22;10791;53.108;18.326;2022-11-15T01:15:32;5.90;99.90
21267;DHT22;10791;53.108;18.326;2022-11-15T01:20:41;5.90;99.90
21267;DHT22;10791;53.108;18.326;2022-11-15T01:25:44;5.90;99.90
21267;DHT22;10791;53.108;18.326;2022-11-15T01:30:48;5.90;99.90
21267;DHT22;10791;53.108;18.326;2022-11-15T01:35:51;5.80;99.90
21267;DHT22;10791;53.108;18.326;2022-11-15T01:40:54;5.80;99.90
21267;DHT22;10791;53.108;18.326;2022-11-15T01:51:29;5.80;99.90
21267;DHT22;10791;53.108;18.326;2022-11-15T01:56:37;5.70;99.90
21267;DHT22;10791;53.108;18.326;2022-11-15T02:01:43;5.70;99.90
21267;DHT22;10791;53.108;18.326;2022-11-15T02:06:48;5.70;99.90
21267;DHT22;10791;53.108;18.326;2022-11-15T02:11:53;5.60;99.90
21267;DHT22;10791;53.108;18.326;2022-11-15T02:17:31;5.60;99.90
21267;DHT22;10791;53.108;18.326;2022-11-15T02:34:05;5.60;99.90
21267;DHT22;10791;53.108;18.326;2022-11-15T02:44:43;5.60;99.90
21267;DHT22;10791;53.108;18.326;2022-11-15T02:49:51;5.60;99.90
21267;DHT22;10791;53.108;18.326;2022-11-15T02:55:00;5.60;99.90
21267;DHT22;10791;53.108;18.326;2022-11-15T03:00:12;5.60;99.90
21267;DHT22;10791;53.108;18.326;2022-11-15T03:05:36;5.60;99.90
21267;DHT22;10791;53.108;18.326;2022-11-15T03:11:09;5.60;99.90
21267;DHT22;10791;53.108;18.326;2022-11-15T03:16:30;5.50;99.90
21267;DHT22;10791;53.108;18.326;2022-11-15T03:21:39;5.50;99.90
21267;DHT22;10791;53.108;18.326;2022-11-15T03:26:44;5.50;99.90
21267;DHT22;10791;53.108;18.326;2022-11-15T03:31:55;5.50;99.90
21267;DHT22;10791;53.108;18.326;2022-11-15T03:37:00;5.50;99.90
21267;DHT22;10791;53.108;18.326;2022-11-15T03:47:36;5.60;99.90
21267;DHT22;10791;53.108;18.326;2022-11-15T03:52:42;5.60;99.90
21267;DHT22;10791;53.108;18.326;2022-11-15T03:57:50;5.60;99.90
21267;DHT22;10791;53.108;18.326;2022-11-15T04:02:54;5.70;99.90
21267;DHT22;10791;53.108;18.326;2022-11-15T04:07:57;5.70;99.90
21267;DHT22;10791;53.108;18.326;2022-11-15T04:13:02;5.70;99.90
21267;DHT22;10791;53.108;18.326;2022-11-15T04:18:06;5.70;99.90
21267;DHT22;10791;53.108;18.326;2022-11-15T04:23:15;5.70;99.90
21267;DHT22;10791;53.108;18.326;2022-11-15T04:28:37;5.70;99.90
21267;DHT22;10791;53.108;18.326;2022-11-15T04:33:59;5.70;99.90
21267;DHT22;10791;53.108;18.326;2022-11-15T04:39:03;5.70;99.90
21267;DHT22;10791;53.108;18.326;2022-11-15T04:44:06;5.70;99.90
21267;DHT22;10791;53.108;18.326;2022-11-15T04:49:10;5.70;99.90
21267;DHT22;10791;53.108;18.326;2022-11-15T04:54:13;5.70;99.90
21267;DHT22;10791;53.108;18.326;2022-11-15T04:59:16;5.80;99.90
21267;DHT22;10791;53.108;18.326;2022-11-15T05:04:20;5.70;99.90
21267;DHT22;10791;53.108;18.326;2022-11-15T05:09:53;5.70;99.90
21267;DHT22;10791;53.108;18.326;2022-11-15T05:14:57;5.70;99.90
21267;DHT22;10791;53.108;18.326;2022-11-15T05:20:00;5.80;99.90
21267;DHT22;10791;53.108;18.326;2022-11-15T05:25:04;5.80;99.90
21267;DHT22;10791;53.108;18.326;2022-11-15T05:30:08;5.80;99.90
21267;DHT22;10791;53.108;18.326;2022-11-15T05:35:37;5.70;99.90
21267;DHT22;10791;53.108;18.326;2022-11-15T05:40:42;5.80;99.90
21267;DHT22;10791;53.108;18.326;2022-11-15T05:45:45;5.80;99.90
21267;DHT22;10791;53.108;18.326;2022-11-15T05:50:49;5.80;99.90
21267;DHT22;10791;53.108;18.326;2022-11-15T05:55:53;5.70;99.90
21267;DHT22;10791;53.108;18.326;2022-11-15T06:00:57;5.80;99.90
21267;DHT22;10791;53.108;18.326;2022-11-15T06:06:00;5.80;99.90
21267;DHT22;10791;53.108;18.326;2022-11-15T06:11:05;5.80;99.90
21267;DHT22;10791;53.108;18.326;2022-11-15T06:16:09;5.80;99.90
21267;DHT22;10791;53.108;18.326;2022-11-15T06:21:13;5.80;99.90
21267;DHT22;10791;53.108;18.326;2022-11-15T06:26:16;5.80;99.90
21267;DHT22;10791;53.108;18.326;2022-11-15T06:31:20;5.80;99.90
21267;DHT22;10791;53.108;18.326;2022-11-15T06:36:23;5.80;99.90
21267;DHT22;10791;53.108;18.326;2022-11-15T06:41:27;5.80;99.90
21267;DHT22;10791;53.108;18.326;2022-11-15T06:46:30;5.80;99.90
21267;DHT22;10791;53.108;18.326;2022-11-15T06:51:33;5.80;99.90
21267;DHT22;10791;53.108;18.326;2022-11-15T06:56:36;5.90;99.90
21267;DHT22;10791;53.108;18.326;2022-11-15T07:01:40;5.90;99.90
21267;DHT22;10791;53.108;18.326;2022-11-15T07:06:46;5.90;99.90
21267;DHT22;10791;53.108;18.326;2022-11-15T07:11:51;5.90;99.90
21267;DHT22;10791;53.108;18.326;2022-11-15T07:16:55;5.90;99.90
21267;DHT22;10791;53.108;18.326;2022-11-15T07:21:58;5.90;99.90
21267;DHT22;10791;53.108;18.326;2022-11-15T07:27:02;6.00;99.90
21267;DHT22;10791;53.108;18.326;2022-11-15T07:32:05;6.00;99.90
21267;DHT22;10791;53.108;18.326;2022-11-15T07:37:08;6.10;99.90
21267;DHT22;10791;53.108;18.326;2022-11-15T07:42:13;6.10;99.90
21267;DHT22;10791;53.108;18.326;2022-11-15T07:47:34;6.10;99.90
21267;DHT22;10791;53.108;18.326;2022-11-15T07:52:38;6.10;99.90
21267;DHT22;10791;53.108;18.326;2022-11-15T07:57:41;6.10;99.90
21267;DHT22;10791;53.108;18.326;2022-11-15T08:02:45;6.10;99.90
21267;DHT22;10791;53.108;18.326;2022-11-15T08:07:48;6.10;99.90
21267;DHT22;10791;53.108;18.326;2022-11-15T08:13:02;6.10;99.90
21267;DHT22;10791;53.108;18.326;2022-11-15T08:18:10;6.20;99.90
21267;DHT22;10791;53.108;18.326;2022-11-15T08:23:14;6.20;99.90
21267;DHT22;10791;53.108;18.326;2022-11-15T08:28:17;6.30;99.90
21267;DHT22;10791;53.108;18.326;2022-11-15T08:33:23;6.30;99.90
21267;DHT22;10791;53.108;18.326;2022-11-15T08:38:27;6.30;99.90
21267;DHT22;10791;53.108;18.326;2022-11-15T08:43:34;6.30;99.90
21267;DHT22;10791;53.108;18.326;2022-11-15T08:48:38;6.40;99.90
21267;DHT22;10791;53.108;18.326;2022-11-15T08:53:42;6.40;99.90
21267;DHT22;10791;53.108;18.326;2022-11-15T08:58:46;6.50;99.90
21267;DHT22;10791;53.108;18.326;2022-11-15T09:03:50;6.50;99.90
21267;DHT22;10791;53.108;18.326;2022-11-15T09:08:54;6.60;99.90
21267;DHT22;10791;53.108;18.326;2022-11-15T09:13:58;6.50;99.90
21267;DHT22;10791;53.108;18.326;2022-11-15T09:19:01;6.50;99.90
21267;DHT22;10791;53.108;18.326;2022-11-15T09:24:12;6.50;99.90
21267;DHT22;10791;53.108;18.326;2022-11-15T09:29:20;6.40;99.90
21267;DHT22;10791;53.108;18.326;2022-11-15T09:34:23;6.40;99.90
21267;DHT22;10791;53.108;18.326;2022-11-15T09:39:26;6.40;99.90
21267;DHT22;10791;53.108;18.326;2022-11-15T09:44:39;6.40;99.90
21267;DHT22;10791;53.108;18.326;2022-11-15T09:49:57;6.40;99.90
21267;DHT22;10791;53.108;18.326;2022-11-15T09:55:02;6.50;99.90
21267;DHT22;10791;53.108;18.326;2022-11-15T10:00:11;6.40;99.90
21267;DHT22;10791;53.108;18.326;2022-11-15T10:05:43;6.40;99.90
21267;DHT22;10791;53.108;18.326;2022-11-15T10:10:51;6.30;99.90
21267;DHT22;10791;53.108;18.326;2022-11-15T10:26:55;6.30;99.90
21267;DHT22;10791;53.108;18.326;2022-11-15T10:31:59;6.40;99.90
21267;DHT22;10791;53.108;18.326;2022-11-15T10:37:02;6.40;99.90
21267;DHT22;10791;53.108;18.326;2022-11-15T10:42:26;6.50;99.90
21267;DHT22;10791;53.108;18.326;2022-11-15T10:47:32;6.70;99.90
21267;DHT22;10791;53.108;18.326;2022-11-15T10:52:45;6.70;99.90
21267;DHT22;10791;53.108;18.326;2022-11-15T10:58:04;6.70;99.90
21267;DHT22;10791;53.108;18.326;2022-11-15T11:03:33;6.80;99.90
21267;DHT22;10791;53.108;18.326;2022-11-15T11:08:38;6.80;99.90
21267;DHT22;10791;53.108;18.326;2022-11-15T11:13:41;6.60;99.90
21267;DHT22;10791;53.108;18.326;2022-11-15T11:24:51;6.40;99.90
21267;DHT22;10791;53.108;18.326;2022-11-15T11:50:41;6.50;99.90
21267;DHT22;10791;53.108;18.326;2022-11-15T11:55:49;6.50;99.90
21267;DHT22;10791;53.108;18.326;2022-11-15T12:00:58;6.50;99.90
21267;DHT22;10791;53.108;18.326;2022-11-15T12:06:14;6.60;99.90
21267;DHT22;10791;53.108;18.326;2022-11-15T12:17:03;6.70;99.90
21267;DHT22;10791;53.108;18.326;2022-11-15T12:22:22;6.80;99.90
21267;DHT22;10791;53.108;18.326;2022-11-15T12:27:46;6.90;99.90
21267;DHT22;10791;53.108;18.326;2022-11-15T12:32:58;6.80;99.90
21267;DHT22;10791;53.108;18.326;2022-11-15T12:38:02;6.60;99.90
21267;DHT22;10791;53.108;18.326;2022-11-15T13:04:21;6.60;99.90
21267;DHT22;10791;53.108;18.326;2022-11-15T13:14:38;6.60;99.90
21267;DHT22;10791;53.108;18.326;2022-11-15T13:19:52;6.60;99.90
21267;DHT22;10791;53.108;18.326;2022-11-15T13:25:02;6.50;99.90
21267;DHT22;10791;53.108;18.326;2022-11-15T13:30:14;6.40;99.90
21267;DHT22;10791;53.108;18.326;2022-11-15T13:35:25;6.40;99.90
21267;DHT22;10791;53.108;18.326;2022-11-15T13:40:34;6.30;99.90
21267;DHT22;10791;53.108;18.326;2022-11-15T13:45:38;6.20;99.90
21267;DHT22;10791;53.108;18.326;2022-11-15T13:50:41;6.10;99.90
21267;DHT22;10791;53.108;18.326;2022-11-15T13:55:45;6.10;99.90
21267;DHT22;10791;53.108;18.326;2022-11-15T14:01:01;6.10;99.90
21267;DHT22;10791;53.108;18.326;2022-11-15T14:06:08;6.10;99.90
21267;DHT22;10791;53.108;18.326;2022-11-15T14:11:18;6.10;99.90
21267;DHT22;10791;53.108;18.326;2022-11-15T14:16:33;6.10;99.90
21267;DHT22;10791;53.108;18.326;2022-11-15T14:21:37;6.10;99.90
21267;DHT22;10791;53.108;18.326;2022-11-15T14:26:40;6.10;99.90
21267;DHT22;10791;53.108;18.326;2022-11-15T14:31:44;6.00;99.90
21267;DHT22;10791;53.108;18.326;2022-11-15T14:36:50;6.00;99.90
21267;DHT22;10791;53.108;18.326;2022-11-15T14:41:53;6.00;99.90
21267;DHT22;10791;53.108;18.326;2022-11-15T14:46:57;6.00;99.90
21267;DHT22;10791;53.108;18.326;2022-11-15T14:52:00;6.00;99.90
21267;DHT22;10791;53.108;18.326;2022-11-15T14:57:03;5.90;99.90
21267;DHT22;10791;53.108;18.326;2022-11-15T15:02:22;5.90;99.90
21267;DHT22;10791;53.108;18.326;2022-11-15T15:07:25;5.90;99.90
21267;DHT22;10791;53.108;18.326;2022-11-15T15:12:29;6.00;99.90
21267;DHT22;10791;53.108;18.326;2022-11-15T15:17:33;5.90;99.90
21267;DHT22;10791;53.108;18.326;2022-11-15T15:22:36;5.90;99.90
21267;DHT22;10791;53.108;18.326;2022-11-15T15:27:40;6.00;99.90
21267;DHT22;10791;53.108;18.326;2022-11-15T15:32:44;6.00;99.90
21267;DHT22;10791;53.108;18.326;2022-11-15T15:37:48;6.00;99.90
21267;DHT22;10791;53.108;18.326;2022-11-15T15:42:53;6.00;99.90
21267;DHT22;10791;53.108;18.326;2022-11-15T15:47:56;6.00;99.90
21267;DHT22;10791;53.108;18.326;2022-11-15T15:53:02;6.00;99.90
21267;DHT22;10791;53.108;18.326;2022-11-15T15:58:06;6.00;99.90
21267;DHT22;10791;53.108;18.326;2022-11-15T16:03:10;5.90;99.90
21267;DHT22;10791;53.108;18.326;2022-11-15T16:08:24;5.90;99.90
21267;DHT22;10791;53.108;18.326;2022-11-15T16:13:33;5.90;99.90
21267;DHT22;10791;53.108;18.326;2022-11-15T16:18:37;5.90;99.90
21267;DHT22;10791;53.108;18.326;2022-11-15T16:23:41;5.90;99.90
21267;DHT22;10791;53.108;18.326;2022-11-15T16:28:45;5.90;99.90
21267;DHT22;10791;53.108;18.326;2022-11-15T16:33:49;5.80;99.90
21267;DHT22;10791;53.108;18.326;2022-11-15T16:38:53;5.90;99.90
21267;DHT22;10791;53.108;18.326;2022-11-15T16:43:57;5.80;99.90
21267;DHT22;10791;53.108;18.326;2022-11-15T16:49:00;5.90;99.90
21267;DHT22;10791;53.108;18.326;2022-11-15T16:54:04;5.90;99.90
21267;DHT22;10791;53.108;18.326;2022-11-15T16:59:13;6.00;99.90
21267;DHT22;10791;53.108;18.326;2022-11-15T17:04:21;6.00;99.90
21267;DHT22;10791;53.108;18.326;2022-11-15T17:09:25;6.00;99.90
21267;DHT22;10791;53.108;18.326;2022-11-15T17:14:30;5.90;99.90
21267;DHT22;10791;53.108;18.326;2022-11-15T17:19:34;5.90;99.90
21267;DHT22;10791;53.108;18.326;2022-11-15T17:24:37;6.00;99.90
21267;DHT22;10791;53.108;18.326;2022-11-15T17:29:42;6.00;99.90
21267;DHT22;10791;53.108;18.326;2022-11-15T17:34:46;6.00;99.90
21267;DHT22;10791;53.108;18.326;2022-11-15T17:39:50;6.00;99.90
21267;DHT22;10791;53.108;18.326;2022-11-15T17:44:55;6.00;99.90
21267;DHT22;10791;53.108;18.326;2022-11-15T17:49:58;6.00;99.90
21267;DHT22;10791;53.108;18.326;2022-11-15T17:55:02;6.10;99.90
21267;DHT22;10791;53.108;18.326;2022-11-15T18:00:07;6.20;99.90
21267;DHT22;10791;53.108;18.326;2022-11-15T18:05:14;6.10;99.90
21267;DHT22;10791;53.108;18.326;2022-11-15T18:10:18;6.10;99.90
21267;DHT22;10791;53.108;18.326;2022-11-15T18:15:23;6.10;99.90
21267;DHT22;10791;53.108;18.326;2022-11-15T18:20:27;6.10;99.90
21267;DHT22;10791;53.108;18.326;2022-11-15T18:25:31;6.10;99.90
21267;DHT22;10791;53.108;18.326;2022-11-15T18:30:37;6.00;99.90
21267;DHT22;10791;53.108;18.326;2022-11-15T18:35:46;6.00;99.90
21267;DHT22;10791;53.108;18.326;2022-11-15T18:40:51;6.00;99.90
21267;DHT22;10791;53.108;18.326;2022-11-15T18:45:56;6.00;99.90
21267;DHT22;10791;53.108;18.326;2022-11-15T18:51:09;6.00;99.90
21267;DHT22;10791;53.108;18.326;2022-11-15T18:56:18;6.00;99.90
21267;DHT22;10791;53.108;18.326;2022-11-15T19:01:25;6.00;99.90
21267;DHT22;10791;53.108;18.326;2022-11-15T19:06:29;5.90;99.90
21267;DHT22;10791;53.108;18.326;2022-11-15T19:11:36;6.00;99.90
21267;DHT22;10791;53.108;18.326;2022-11-15T19:16:47;6.00;99.90
21267;DHT22;10791;53.108;18.326;2022-11-15T19:21:57;6.00;99.90
21267;DHT22;10791;53.108;18.326;2022-11-15T19:27:02;6.00;99.90
21267;DHT22;10791;53.108;18.326;2022-11-15T19:32:08;6.00;99.90
21267;DHT22;10791;53.108;18.326;2022-11-15T19:37:13;5.90;99.90
21267;DHT22;10791;53.108;18.326;2022-11-15T19:42:18;5.90;99.90
21267;DHT22;10791;53.108;18.326;2022-11-15T19:47:22;5.90;99.90
21267;DHT22;10791;53.108;18.326;2022-11-15T19:52:28;5.90;99.90
21267;DHT22;10791;53.108;18.326;2022-11-15T19:57:38;5.80;99.90
21267;DHT22;10791;53.108;18.326;2022-11-15T20:02:43;5.80;99.90
21267;DHT22;10791;53.108;18.326;2022-11-15T20:07:48;5.70;99.90
21267;DHT22;10791;53.108;18.326;2022-11-15T20:12:53;5.70;99.90
21267;DHT22;10791;53.108;18.326;2022-11-15T20:17:56;5.60;99.90
21267;DHT22;10791;53.108;18.326;2022-11-15T20:23:02;5.60;99.90
21267;DHT22;10791;53.108;18.326;2022-11-15T20:28:18;5.60;99.90
21267;DHT22;10791;53.108;18.326;2022-11-15T20:33:22;5.60;99.90
21267;DHT22;10791;53.108;18.326;2022-11-15T20:38:29;5.60;99.90
21267;DHT22;10791;53.108;18.326;2022-11-15T20:43:34;5.60;99.90
21267;DHT22;10791;53.108;18.326;2022-11-15T20:48:38;5.40;99.90
21267;DHT22;10791;53.108;18.326;2022-11-15T20:53:44;5.40;99.90
21267;DHT22;10791;53.108;18.326;2022-11-15T20:58:49;5.40;99.90
21267;DHT22;10791;53.108;18.326;2022-11-15T21:03:56;5.40;99.90
21267;DHT22;10791;53.108;18.326;2022-11-15T21:09:00;5.40;99.90
21267;DHT22;10791;53.108;18.326;2022-11-15T21:14:23;5.40;99.90
21267;DHT22;10791;53.108;18.326;2022-11-15T21:19:28;5.40;99.90
21267;DHT22;10791;53.108;18.326;2022-11-15T21:24:38;5.50;99.90
21267;DHT22;10791;53.108;18.326;2022-11-15T21:29:42;5.50;99.90
21267;DHT22;10791;53.108;18.326;2022-11-15T21:34:50;5.50;99.90
21267;DHT22;10791;53.108;18.326;2022-11-15T21:39:53;5.50;99.90
21267;DHT22;10791;53.108;18.326;2022-11-15T21:44:58;5.50;99.90
21267;DHT22;10791;53.108;18.326;2022-11-15T21:50:02;5.50;99.90
21267;DHT22;10791;53.108;18.326;2022-11-15T21:55:06;5.50;99.90
21267;DHT22;10791;53.108;18.326;2022-11-15T22:00:13;5.60;99.90
21267;DHT22;10791;53.108;18.326;2022-11-15T22:05:36;5.50;99.90
21267;DHT22;10791;53.108;18.326;2022-11-15T22:10:45;5.60;99.90
21267;DHT22;10791;53.108;18.326;2022-11-15T22:15:51;5.50;99.90
21267;DHT22;10791;53.108;18.326;2022-11-15T22:20:58;5.60;99.90
21267;DHT22;10791;53.108;18.326;2022-11-15T22:26:01;5.60;99.90
21267;DHT22;10791;53.108;18.326;2022-11-15T22:31:06;5.60;99.90
21267;DHT22;10791;53.108;18.326;2022-11-15T22:36:10;5.60;99.90
21267;DHT22;10791;53.108;18.326;2022-11-15T22:41:14;5.60;99.90
21267;DHT22;10791;53.108;18.326;2022-11-15T22:46:18;5.60;99.90
21267;DHT22;10791;53.108;18.326;2022-11-15T22:51:21;5.70;99.90
21267;DHT22;10791;53.108;18.326;2022-11-15T22:56:25;5.70;99.90
21267;DHT22;10791;53.108;18.326;2022-11-15T23:01:29;5.70;99.90
21267;DHT22;10791;53.108;18.326;2022-11-15T23:06:32;5.70;99.90
21267;DHT22;10791;53.108;18.326;2022-11-15T23:11:35;5.70;99.90
21267;DHT22;10791;53.108;18.326;2022-11-15T23:16:57;5.70;99.90
21267;DHT22;10791;53.108;18.326;2022-11-15T23:22:01;5.70;99.90
21267;DHT22;10791;53.108;18.326;2022-11-15T23:27:22;5.70;99.90
21267;DHT22;10791;53.108;18.326;2022-11-15T23:32:26;5.70;99.90
21267;DHT22;10791;53.108;18.326;2022-11-15T23:37:48;5.70;99.90
21267;DHT22;10791;53.108;18.326;2022-11-15T23:42:51;5.70;99.90
21267;DHT22;10791;53.108;18.326;2022-11-15T23:47:55;5.70;99.90
21267;DHT22;10791;53.108;18.326;2022-11-15T23:53:03;5.60;99.90
21267;DHT22;10791;53.108;18.326;2022-11-15T23:58:07;5.70;99.90
